International Virtual Aviation Organisation

Eastern Europe and Northern Asia MCD

 
UUYY 101100Z 19007MPS CAVOK 09/M06 Q1026 R18/61D NOSIG RMK QFE761/1015
QNH:(hPa/inHg/mmHg)1026 / 30.3 / 770
QFE:(hPa/inHg/mmHg)1013 / 29.92 / 760
Temperature9
Dew Point-6
Visibility> 10000
WeatherCAVOK
Cloud Cover
Transition Height700 m./2700 ft.
Transition LevelFL40
SQUAWK